Time;durP1;ratioP1;P1;durP2;ratioP2;P2;SDS_P1;SDS_P2;PMS_P1;PMS_P2;Temp;Humidity;BMP_temperature;BMP_pressure;BME280_temperature;BME280_humidity;BME280_pressure;Samples;Min_cycle;Max_cycle;Signal;HPM_P1;HPM_P2
2023/01/03 00:02:05;;;;;;;10.88;6.35;;;6.60;99.90;;;;;;4935946;29;20079;-86
2023/01/03 00:04:32;;;;;;;10.90;5.28;;;6.60;99.90;;;;;;4908503;29;20062;-85
2023/01/03 00:07:00;;;;;;;9.88;5.63;;;6.50;99.90;;;;;;4920002;29;20075;-86
2023/01/03 00:09:27;;;;;;;11.50;5.40;;;6.50;99.90;;;;;;4920375;29;20476;-86
2023/01/03 00:14:42;;;;;;;7.38;3.83;;;6.40;99.90;;;;;;4936158;29;20392;-86
2023/01/03 00:17:11;;;;;;;7.18;3.90;;;6.40;99.90;;;;;;4935472;29;20048;-86
2023/01/03 00:19:41;;;;;;;6.75;3.50;;;6.40;99.90;;;;;;4948865;29;20458;-86
2023/01/03 00:22:11;;;;;;;5.88;3.38;;;6.40;99.90;;;;;;4935378;29;20047;-86
2023/01/03 00:24:41;;;;;;;5.83;2.97;;;6.50;99.90;;;;;;4935334;29;20107;-86
2023/01/03 00:27:09;;;;;;;6.50;2.95;;;6.50;99.90;;;;;;4920298;29;20047;-86
2023/01/03 00:29:36;;;;;;;6.15;3.03;;;6.50;99.90;;;;;;4935483;29;20138;-86
2023/01/03 00:32:04;;;;;;;5.35;2.55;;;6.50;99.90;;;;;;4935113;29;20450;-86
2023/01/03 00:34:34;;;;;;;6.55;3.05;;;6.50;99.90;;;;;;4903656;29;20044;-86
2023/01/03 00:37:02;;;;;;;7.43;3.15;;;6.60;99.90;;;;;;4935242;29;20482;-86
2023/01/03 00:39:29;;;;;;;4.32;2.50;;;6.60;99.90;;;;;;4935138;29;20051;-86
2023/01/03 00:41:56;;;;;;;5.20;2.67;;;6.60;99.90;;;;;;4919531;29;20047;-86
2023/01/03 00:44:23;;;;;;;6.05;3.13;;;6.60;99.90;;;;;;4935624;29;20130;-86
2023/01/03 00:46:50;;;;;;;6.25;2.92;;;6.50;99.90;;;;;;4934753;29;20517;-85
2023/01/03 00:49:18;;;;;;;6.78;3.22;;;6.40;99.90;;;;;;4935048;29;20055;-86
2023/01/03 00:51:45;;;;;;;6.25;3.47;;;6.40;99.90;;;;;;4903932;29;20474;-86
2023/01/03 00:54:14;;;;;;;6.22;3.17;;;6.30;99.90;;;;;;4934966;29;20486;-86
2023/01/03 00:56:44;;;;;;;9.00;3.58;;;6.30;99.90;;;;;;4934819;29;20408;-86
2023/01/03 00:59:13;;;;;;;7.18;3.47;;;6.20;99.90;;;;;;4935029;29;20048;-85
2023/01/03 01:01:45;;;;;;;6.20;3.00;;;6.20;99.90;;;;;;4950806;29;20040;-86
2023/01/03 01:04:25;;;;;;;7.38;4.00;;;6.20;99.90;;;;;;4934774;29;20375;-86
2023/01/03 01:07:01;;;;;;;6.95;3.60;;;6.10;99.90;;;;;;4936644;29;20152;-90
2023/01/03 01:09:34;;;;;;;9.02;3.65;;;6.10;99.90;;;;;;4936225;29;20058;-91
2023/01/03 01:12:05;;;;;;;7.15;3.30;;;6.10;99.90;;;;;;4935902;29;20047;-91
2023/01/03 01:14:33;;;;;;;6.10;3.28;;;6.20;99.90;;;;;;4920220;29;20056;-91
2023/01/03 01:17:04;;;;;;;7.03;3.35;;;6.30;99.90;;;;;;4935981;29;20051;-91
2023/01/03 01:19:42;;;;;;;6.53;3.47;;;6.40;99.90;;;;;;4934235;29;20062;-91
2023/01/03 01:22:10;;;;;;;8.43;3.88;;;6.40;99.90;;;;;;4936038;29;20056;-91
2023/01/03 01:24:39;;;;;;;7.45;4.05;;;6.50;99.90;;;;;;4936612;29;20067;-91
2023/01/03 01:27:07;;;;;;;7.60;3.88;;;6.60;99.90;;;;;;4920439;29;20055;-91
2023/01/03 01:29:34;;;;;;;7.82;4.18;;;6.70;99.90;;;;;;4920491;29;20063;-91
2023/01/03 01:32:02;;;;;;;9.07;4.65;;;6.70;99.90;;;;;;4936540;29;20048;-91
2023/01/03 01:34:31;;;;;;;9.68;5.07;;;6.70;99.90;;;;;;4935975;29;20390;-91
2023/01/03 01:37:01;;;;;;;7.65;4.50;;;6.70;99.90;;;;;;4936361;29;20063;-91
2023/01/03 01:39:28;;;;;;;7.90;4.45;;;6.80;99.90;;;;;;4919998;29;20049;-90
2023/01/03 01:45:03;;;;;;;7.72;3.72;;;6.70;99.90;;;;;;4955229;28;20080;-86
2023/01/03 01:47:51;;;;;;;6.88;3.58;;;6.60;99.90;;;;;;4922193;29;20482;-85
2023/01/03 01:50:24;;;;;;;8.52;4.22;;;6.50;99.90;;;;;;4938257;29;20103;-86
2023/01/03 01:53:03;;;;;;;6.93;3.85;;;6.50;99.90;;;;;;4922687;29;20106;-86
2023/01/03 01:55:44;;;;;;;6.47;3.25;;;6.40;99.90;;;;;;4949411;29;20052;-85
2023/01/03 01:58:11;;;;;;;6.78;3.75;;;6.40;99.90;;;;;;4938378;29;20079;-85
2023/01/03 02:00:44;;;;;;;7.05;3.78;;;6.40;99.90;;;;;;4938013;29;20138;-85
2023/01/03 02:03:12;;;;;;;7.10;3.60;;;6.40;99.90;;;;;;4940935;29;20590;-85
2023/01/03 02:05:45;;;;;;;6.10;2.88;;;6.40;99.90;;;;;;4940274;29;20055;-85
2023/01/03 02:08:12;;;;;;;6.60;3.45;;;6.50;99.90;;;;;;4937663;29;20051;-85
2023/01/03 02:10:59;;;;;;;6.05;3.20;;;6.50;99.90;;;;;;4937584;29;20058;-85
2023/01/03 02:13:39;;;;;;;6.45;3.13;;;6.50;99.90;;;;;;4922436;29;20059;-85
2023/01/03 02:16:10;;;;;;;4.55;2.53;;;6.50;99.90;;;;;;4937539;29;20044;-85
2023/01/03 02:19:03;;;;;;;7.95;3.28;;;6.50;99.90;;;;;;4938713;29;20071;-84
2023/01/03 02:21:48;;;;;;;5.88;2.92;;;6.50;99.90;;;;;;4936999;29;20142;-85
2023/01/03 02:25:02;;;;;;;6.10;3.55;;;6.50;99.90;;;;;;4947967;28;20043;-85
2023/01/03 02:27:32;;;;;;;5.90;3.65;;;6.50;99.90;;;;;;4937362;29;20500;-85
2023/01/03 02:30:27;;;;;;;6.95;3.40;;;6.40;99.90;;;;;;4937450;29;20398;-85
2023/01/03 02:33:21;;;;;;;7.03;3.47;;;6.50;99.90;;;;;;4964017;28;20039;-84
2023/01/03 02:36:39;;;;;;;6.70;3.28;;;6.50;99.90;;;;;;4964957;28;20111;-84
2023/01/03 02:39:27;;;;;;;5.95;2.75;;;6.60;99.90;;;;;;4913956;29;20471;-84
2023/01/03 02:45:14;;;;;;;6.97;3.28;;;6.60;99.90;;;;;;4937111;29;20051;-85
2023/01/03 02:48:02;;;;;;;6.82;3.85;;;6.70;99.90;;;;;;4937233;29;20142;-84
2023/01/03 02:50:36;;;;;;;13.32;7.57;;;6.70;99.90;;;;;;4937220;29;20048;-84
2023/01/03 02:53:08;;;;;;;11.90;6.55;;;6.70;99.90;;;;;;4936849;29;20044;-84
2023/01/03 02:55:36;;;;;;;10.43;6.43;;;6.80;99.90;;;;;;4936773;29;20103;-84
2023/01/03 02:58:09;;;;;;;9.82;5.97;;;6.80;99.90;;;;;;4936431;29;20131;-84
2023/01/03 03:00:42;;;;;;;11.57;6.72;;;6.80;99.80;;;;;;4920973;29;20138;-84
2023/01/03 03:03:12;;;;;;;;;;;6.80;99.80;;;;;;4937368;29;20486;-84
2023/01/03 03:05:55;;;;;;;11.38;6.13;;;6.80;99.80;;;;;;4920959;29;19933;-85
2023/01/03 03:08:25;;;;;;;11.32;6.78;;;6.80;99.80;;;;;;4936676;29;20048;-84
2023/01/03 03:14:07;;;;;;;15.95;7.40;;;6.90;99.70;;;;;;4922766;29;20047;-85
2023/01/03 03:16:59;;;;;;;19.60;11.43;;;6.90;99.60;;;;;;4924303;29;20047;-84
2023/01/03 03:25:52;;;;;;;22.83;13.43;;;6.80;99.60;;;;;;4952351;28;20055;-85
2023/01/03 03:28:35;;;;;;;24.17;12.98;;;6.80;99.60;;;;;;4936280;29;20048;-84
2023/01/03 03:31:07;;;;;;;17.38;10.70;;;6.80;99.60;;;;;;4936413;29;20067;-83
2023/01/03 03:33:49;;;;;;;15.52;10.00;;;6.80;99.60;;;;;;4935959;29;20062;-84
2023/01/03 03:36:26;;;;;;;19.02;9.90;;;6.80;99.60;;;;;;4920596;29;20048;-84
2023/01/03 03:38:53;;;;;;;19.08;10.98;;;6.80;99.60;;;;;;4936165;29;20054;-85
2023/01/03 03:47:35;;;;;;;14.63;8.23;;;6.90;99.60;;;;;;4935813;29;20051;-85
2023/01/03 03:50:30;;;;;;;13.77;8.07;;;6.90;99.60;;;;;;4920163;29;20044;-84
2023/01/03 03:53:01;;;;;;;13.93;7.65;;;6.90;99.60;;;;;;4935109;29;20058;-84
2023/01/03 03:55:39;;;;;;;11.23;6.50;;;6.90;99.60;;;;;;4940340;29;20139;-84
2023/01/03 03:58:23;;;;;;;12.30;7.32;;;6.90;99.60;;;;;;4935575;29;20048;-84
2023/01/03 04:00:51;;;;;;;10.75;5.63;;;7.00;99.60;;;;;;4936202;29;20442;-89
2023/01/03 04:03:20;;;;;;;11.00;5.85;;;6.90;99.60;;;;;;4936615;29;20076;-89
2023/01/03 04:05:53;;;;;;;8.50;5.15;;;6.90;99.60;;;;;;4936794;29;20079;-89
2023/01/03 04:08:21;;;;;;;10.70;6.03;;;6.90;99.60;;;;;;4936684;29;20517;-89
2023/01/03 04:10:49;;;;;;;10.30;6.93;;;6.80;99.60;;;;;;4936225;29;20055;-89
2023/01/03 04:13:16;;;;;;;12.43;7.03;;;6.70;99.60;;;;;;4905252;29;20615;-89
2023/01/03 04:15:43;;;;;;;11.98;7.07;;;6.70;99.70;;;;;;4920647;29;20139;-89
2023/01/03 04:18:10;;;;;;;11.07;6.70;;;6.60;99.70;;;;;;4905607;29;20513;-89
2023/01/03 04:20:40;;;;;;;12.48;7.55;;;6.60;99.80;;;;;;4905945;29;20044;-89
2023/01/03 04:23:07;;;;;;;11.65;7.22;;;6.50;99.80;;;;;;4905020;29;20052;-90
2023/01/03 04:25:34;;;;;;;12.07;7.25;;;6.50;99.80;;;;;;4905758;29;20047;-89
2023/01/03 04:28:01;;;;;;;13.57;7.97;;;6.50;99.90;;;;;;4889650;29;20102;-89
2023/01/03 04:30:28;;;;;;;12.38;7.70;;;6.50;99.90;;;;;;4920588;29;20143;-89
2023/01/03 04:32:56;;;;;;;9.63;6.97;;;6.50;99.80;;;;;;4905007;29;20451;-89
2023/01/03 04:35:23;;;;;;;10.65;6.82;;;6.50;99.80;;;;;;4904702;29;20050;-89
2023/01/03 04:37:50;;;;;;;11.05;6.88;;;6.50;99.80;;;;;;4889494;29;20062;-89
2023/01/03 04:40:17;;;;;;;9.50;6.10;;;6.50;99.80;;;;;;4920636;29;20094;-89
2023/01/03 04:45:29;;;;;;;10.70;7.28;;;6.40;99.70;;;;;;4923200;29;20052;-89
2023/01/03 04:47:56;;;;;;;11.55;7.78;;;6.40;99.70;;;;;;4936060;29;20594;-89
2023/01/03 04:50:24;;;;;;;11.60;7.05;;;6.30;99.70;;;;;;4933806;29;20102;-89
2023/01/03 04:52:51;;;;;;;10.23;6.50;;;6.20;99.70;;;;;;4943572;28;20051;-89
2023/01/03 04:55:18;;;;;;;11.05;6.95;;;6.20;99.70;;;;;;4955888;29;20051;-90
2023/01/03 04:57:45;;;;;;;11.25;6.90;;;6.10;99.70;;;;;;4946308;29;20052;-89
2023/01/03 05:00:13;;;;;;;14.07;7.82;;;6.10;99.80;;;;;;4917209;29;20079;-89
2023/01/03 05:02:40;;;;;;;12.32;7.63;;;6.00;99.80;;;;;;4901746;29;20051;-90
2023/01/03 05:05:08;;;;;;;9.32;6.63;;;5.90;99.70;;;;;;4917284;29;20052;-90
2023/01/03 05:07:35;;;;;;;9.07;5.78;;;5.90;99.80;;;;;;4917739;29;20047;-89
2023/01/03 05:10:02;;;;;;;7.15;4.93;;;5.80;99.80;;;;;;4939362;29;20051;-89
2023/01/03 05:12:29;;;;;;;7.30;4.90;;;5.80;99.90;;;;;;4940110;28;20044;-89
2023/01/03 05:14:57;;;;;;;7.22;4.18;;;5.70;99.90;;;;;;4920033;29;20054;-89
2023/01/03 05:17:24;;;;;;;7.35;4.18;;;5.60;99.90;;;;;;4904235;29;20043;-89
2023/01/03 05:28:09;;;;;;;6.05;3.17;;;5.40;99.90;;;;;;4908852;29;20052;-89
2023/01/03 05:30:43;;;;;;;5.97;3.53;;;5.30;99.90;;;;;;4935882;29;20054;-89
2023/01/03 05:33:10;;;;;;;5.93;3.53;;;5.20;99.90;;;;;;4903959;29;20048;-89
2023/01/03 05:35:37;;;;;;;6.30;3.40;;;5.20;99.90;;;;;;4888785;29;20039;-89
2023/01/03 05:38:04;;;;;;;5.82;3.40;;;5.10;99.90;;;;;;4919725;29;20052;-89
2023/01/03 05:40:31;;;;;;;6.00;3.15;;;5.00;99.90;;;;;;4952934;28;20055;-90
2023/01/03 05:43:07;;;;;;;4.78;3.30;;;5.00;99.90;;;;;;4914735;29;20048;-89
2023/01/03 05:45:35;;;;;;;5.63;3.25;;;5.00;99.90;;;;;;4935862;29;20075;-89
2023/01/03 05:48:03;;;;;;;6.32;3.55;;;5.00;99.90;;;;;;4935368;29;20055;-89
2023/01/03 05:50:31;;;;;;;5.68;3.17;;;4.90;99.90;;;;;;4935504;29;20400;-89
2023/01/03 05:52:59;;;;;;;5.43;2.90;;;4.90;99.90;;;;;;4919793;29;20048;-89
2023/01/03 05:55:27;;;;;;;5.32;3.10;;;4.80;99.90;;;;;;4904245;29;20044;-89
2023/01/03 05:57:54;;;;;;;5.22;2.78;;;4.80;99.90;;;;;;4904316;29;20059;-89
2023/01/03 06:00:21;;;;;;;5.43;3.13;;;4.70;99.90;;;;;;4935259;29;20518;-89
2023/01/03 06:02:50;;;;;;;5.10;2.90;;;4.70;99.90;;;;;;4919675;29;20052;-89
2023/01/03 06:05:18;;;;;;;6.88;3.65;;;4.70;99.90;;;;;;4935204;29;20044;-92
2023/01/03 06:07:45;;;;;;;4.68;2.80;;;4.70;99.90;;;;;;4919500;29;20047;-89
2023/01/03 06:10:13;;;;;;;5.82;2.88;;;4.60;99.90;;;;;;4935760;29;20043;-91
2023/01/03 06:12:40;;;;;;;6.18;3.13;;;4.60;99.90;;;;;;4935542;29;20044;-92
2023/01/03 06:15:08;;;;;;;5.45;3.03;;;4.60;99.90;;;;;;4903837;29;20054;-88
2023/01/03 06:20:21;;;;;;;5.10;2.47;;;4.50;99.90;;;;;;4935610;29;20098;-91
2023/01/03 06:22:49;;;;;;;5.63;3.08;;;4.50;99.90;;;;;;4935270;29;20068;-90
2023/01/03 06:25:16;;;;;;;4.55;2.72;;;4.50;99.90;;;;;;4935101;29;20050;-91
2023/01/03 06:27:43;;;;;;;5.47;3.00;;;4.50;99.90;;;;;;4903922;29;20099;-91
2023/01/03 06:30:11;;;;;;;6.15;3.30;;;4.50;99.90;;;;;;4935279;29;20058;-90
2023/01/03 06:32:38;;;;;;;6.03;2.60;;;4.50;99.90;;;;;;4904502;29;20044;-91
2023/01/03 06:35:05;;;;;;;5.53;2.97;;;4.50;99.90;;;;;;4922887;29;20044;-88
2023/01/03 06:37:32;;;;;;;5.22;3.00;;;4.60;99.90;;;;;;4907273;29;20040;-89
2023/01/03 06:39:59;;;;;;;6.07;3.25;;;4.70;99.90;;;;;;4909178;29;20048;-88
2023/01/03 06:42:43;;;;;;;5.05;2.40;;;4.70;99.90;;;;;;4912561;29;20063;-89
2023/01/03 06:53:38;;;;;;;5.05;2.75;;;4.90;99.90;;;;;;4938965;29;20067;-89
2023/01/03 06:56:05;;;;;;;4.97;2.70;;;4.90;99.90;;;;;;4919534;29;20172;-89
2023/01/03 06:58:33;;;;;;;4.50;2.55;;;4.80;99.90;;;;;;4919539;29;20096;-89
2023/01/03 07:01:02;;;;;;;7.43;2.92;;;4.80;99.90;;;;;;4933013;29;20058;-88
2023/01/03 07:03:31;;;;;;;6.60;3.58;;;4.80;99.90;;;;;;4938259;29;20138;-89
2023/01/03 07:05:58;;;;;;;5.40;2.83;;;4.70;99.90;;;;;;4906902;29;20098;-89
2023/01/03 07:08:25;;;;;;;4.82;2.42;;;4.70;99.90;;;;;;4937917;29;20051;-89
2023/01/03 07:10:54;;;;;;;4.88;2.60;;;4.70;99.90;;;;;;4922033;29;20047;-90
2023/01/03 07:16:12;;;;;;;5.55;2.58;;;4.60;99.90;;;;;;4940812;29;20047;-90
2023/01/03 07:18:40;;;;;;;7.18;2.90;;;4.60;99.90;;;;;;4938132;29;20067;-91
2023/01/03 07:21:07;;;;;;;5.60;2.20;;;4.60;99.90;;;;;;4935448;29;20050;-91
2023/01/03 07:23:34;;;;;;;5.30;2.88;;;4.60;99.90;;;;;;4937657;29;20118;-89
2023/01/03 07:26:01;;;;;;;5.88;3.38;;;4.60;99.90;;;;;;4923688;29;20394;-91
2023/01/03 07:28:29;;;;;;;5.20;2.58;;;4.70;99.90;;;;;;4937640;29;20111;-90
2023/01/03 07:31:01;;;;;;;3.88;1.92;;;4.60;99.90;;;;;;4937523;29;20078;-90
2023/01/03 07:33:28;;;;;;;5.15;2.67;;;4.60;99.90;;;;;;4952949;29;20055;-91
2023/01/03 07:36:04;;;;;;;6.80;2.40;;;4.60;99.90;;;;;;4925115;29;20051;-90
2023/01/03 07:38:39;;;;;;;5.63;2.30;;;4.60;99.90;;;;;;4924091;29;20043;-90
2023/01/03 07:41:07;;;;;;;6.22;3.08;;;4.70;99.90;;;;;;4922059;29;20054;-90
2023/01/03 07:43:35;;;;;;;5.03;2.65;;;4.80;99.90;;;;;;4921842;29;20058;-91
2023/01/03 07:46:07;;;;;;;7.03;3.28;;;4.90;99.90;;;;;;4921794;29;20087;-90
2023/01/03 07:48:34;;;;;;;5.35;2.47;;;4.90;99.90;;;;;;4921879;29;20055;-90
2023/01/03 07:51:02;;;;;;;4.07;2.13;;;5.00;99.90;;;;;;4936981;29;20051;-91
2023/01/03 07:53:29;;;;;;;5.25;2.78;;;5.10;99.90;;;;;;4937096;29;20131;-91
2023/01/03 07:56:05;;;;;;;5.78;2.88;;;5.10;99.90;;;;;;4905760;29;20494;-91
2023/01/03 07:58:40;;;;;;;6.30;3.33;;;5.20;99.90;;;;;;4937564;29;20044;-91
2023/01/03 08:01:09;;;;;;;5.35;2.78;;;5.30;99.90;;;;;;4937024;29;20055;-91
2023/01/03 08:03:38;;;;;;;7.25;2.78;;;5.30;99.90;;;;;;4936915;29;20125;-90
2023/01/03 08:06:07;;;;;;;5.05;2.42;;;5.40;99.90;;;;;;4905601;29;20071;-89
2023/01/03 08:08:35;;;;;;;5.43;2.38;;;5.40;99.90;;;;;;4937125;29;20114;-90
2023/01/03 08:14:04;;;;;;;4.45;2.17;;;5.50;99.90;;;;;;4926486;29;20131;-89
2023/01/03 08:16:31;;;;;;;3.90;1.95;;;5.60;99.90;;;;;;4905627;29;20051;-90
2023/01/03 08:18:58;;;;;;;5.00;2.17;;;5.60;99.90;;;;;;4921069;29;20055;-91
2023/01/03 08:21:25;;;;;;;4.63;2.17;;;5.70;99.90;;;;;;4952175;29;20043;-90
2023/01/03 08:23:53;;;;;;;4.05;1.98;;;5.70;99.80;;;;;;4936290;29;20047;-90
2023/01/03 08:26:20;;;;;;;5.90;3.00;;;5.70;99.80;;;;;;4920616;29;20051;-91
2023/01/03 08:28:53;;;;;;;5.75;3.33;;;5.80;99.80;;;;;;4936484;29;20082;-90
2023/01/03 08:31:22;;;;;;;4.95;2.60;;;5.80;99.70;;;;;;4920839;29;20115;-91
2023/01/03 08:33:58;;;;;;;5.32;2.67;;;5.70;99.60;;;;;;4905194;29;20051;-91
2023/01/03 08:36:27;;;;;;;5.15;2.38;;;5.70;99.70;;;;;;4920347;29;20043;-90
2023/01/03 08:39:00;;;;;;;5.72;2.20;;;5.70;99.70;;;;;;4954182;29;20087;-90
2023/01/03 08:41:32;;;;;;;6.63;2.42;;;5.80;99.70;;;;;;4940792;28;20072;-90
2023/01/03 08:44:02;;;;;;;5.45;2.60;;;5.80;99.70;;;;;;4935570;29;20044;-89
2023/01/03 08:46:32;;;;;;;6.50;3.08;;;5.90;99.70;;;;;;4936240;29;20115;-89
2023/01/03 08:49:00;;;;;;;5.65;2.22;;;5.90;99.60;;;;;;4935874;29;20055;-89
2023/01/03 08:51:28;;;;;;;6.00;2.53;;;6.00;99.60;;;;;;4920406;29;20142;-89
2023/01/03 08:53:56;;;;;;;4.47;1.90;;;6.00;99.60;;;;;;4920198;29;20047;-89
2023/01/03 08:56:23;;;;;;;4.55;1.95;;;6.10;99.60;;;;;;4935448;29;20154;-90
2023/01/03 08:58:51;;;;;;;5.20;1.98;;;6.10;99.50;;;;;;4950415;29;20098;-90
2023/01/03 09:01:19;;;;;;;4.47;1.75;;;6.20;99.50;;;;;;4939743;29;20047;-89
2023/01/03 09:03:47;;;;;;;4.50;2.15;;;6.20;99.50;;;;;;4895244;29;20087;-89
2023/01/03 09:06:14;;;;;;;3.55;1.73;;;6.20;99.40;;;;;;4936236;29;20054;-89
2023/01/03 09:08:41;;;;;;;3.95;1.95;;;6.30;99.40;;;;;;4904358;29;20094;-89
2023/01/03 09:11:09;;;;;;;3.90;1.80;;;6.30;99.40;;;;;;4936071;29;20075;-90
2023/01/03 09:13:36;;;;;;;4.13;1.80;;;6.30;99.40;;;;;;4936359;29;20525;-90
2023/01/03 09:16:06;;;;;;;3.22;1.60;;;6.30;99.40;;;;;;4904768;29;20106;-89
2023/01/03 09:18:35;;;;;;;3.83;2.08;;;6.40;99.40;;;;;;4935596;29;20099;-89
2023/01/03 09:21:03;;;;;;;4.90;2.58;;;6.40;99.30;;;;;;4935820;29;20410;-89
2023/01/03 09:23:32;;;;;;;8.40;4.57;;;6.40;99.30;;;;;;4935695;29;20056;-89
2023/01/03 09:26:01;;;;;;;8.70;4.50;;;6.40;99.30;;;;;;4936036;29;20051;-89
2023/01/03 09:28:28;;;;;;;8.40;5.05;;;6.50;99.30;;;;;;4935902;29;20040;-89
2023/01/03 09:30:56;;;;;;;8.95;4.25;;;6.60;99.20;;;;;;4935659;29;20047;-89
2023/01/03 09:33:24;;;;;;;9.55;5.18;;;6.60;99.20;;;;;;4935634;29;20050;-89
2023/01/03 09:35:54;;;;;;;8.50;4.32;;;6.70;99.20;;;;;;4935412;29;20110;-89
2023/01/03 09:38:25;;;;;;;9.25;5.30;;;6.80;99.10;;;;;;4935547;29;20055;-89
2023/01/03 09:41:00;;;;;;;8.45;4.53;;;6.80;99.10;;;;;;4920495;29;20044;-89
2023/01/03 09:43:48;;;;;;;9.30;4.53;;;6.90;99.10;;;;;;4919845;29;20491;-89
2023/01/03 09:46:21;;;;;;;7.25;4.15;;;6.90;99.00;;;;;;4935592;29;20075;-90
2023/01/03 09:48:54;;;;;;;8.65;4.25;;;6.90;99.00;;;;;;4935531;29;20087;-90
2023/01/03 10:06:53;;;;;;;10.30;4.93;;;7.10;99.00;;;;;;4934383;29;20558;-90
2023/01/03 10:09:30;;;;;;;9.38;5.03;;;7.10;99.00;;;;;;4922816;29;20111;-90
2023/01/03 10:11:57;;;;;;;11.77;5.45;;;7.10;99.00;;;;;;4939324;29;20054;-90
2023/01/03 10:14:36;;;;;;;9.32;4.93;;;7.20;99.30;;;;;;4923043;29;20533;-89
2023/01/03 10:17:31;;;;;;;9.48;4.18;;;7.20;99.00;;;;;;4923339;29;20056;-89
2023/01/03 10:20:10;;;;;;;10.02;5.25;;;7.30;99.00;;;;;;4919778;29;20107;-89
2023/01/03 10:22:38;;;;;;;11.68;5.78;;;7.30;99.00;;;;;;4926248;29;20067;-90
2023/01/03 10:25:20;;;;;;;11.80;5.43;;;7.30;99.00;;;;;;4918921;29;20086;-84
2023/01/03 10:27:55;;;;;;;11.57;5.82;;;7.30;99.00;;;;;;4921545;29;20534;-84
2023/01/03 10:30:29;;;;;;;8.85;5.05;;;7.30;99.00;;;;;;4937691;29;20122;-84
2023/01/03 10:33:02;;;;;;;8.65;4.82;;;7.40;99.00;;;;;;4921699;29;20160;-84
2023/01/03 10:35:35;;;;;;;8.93;5.53;;;7.40;98.90;;;;;;4921418;29;20051;-84
2023/01/03 10:38:03;;;;;;;9.15;4.80;;;7.40;98.90;;;;;;4921745;29;20043;-84
2023/01/03 10:40:41;;;;;;;12.07;5.85;;;7.50;99.00;;;;;;4905753;29;20055;-84
2023/01/03 10:43:19;;;;;;;9.75;4.72;;;7.50;99.00;;;;;;4937008;29;20040;-84
2023/01/03 10:45:53;;;;;;;11.57;6.18;;;7.50;99.00;;;;;;4936506;29;20031;-85
2023/01/03 10:48:21;;;;;;;9.25;4.43;;;7.50;99.00;;;;;;4937258;29;20054;-84
2023/01/03 10:50:52;;;;;;;9.65;6.18;;;7.50;98.90;;;;;;4941583;29;20051;-84
2023/01/03 10:53:25;;;;;;;11.32;5.93;;;7.60;99.00;;;;;;4944829;29;20521;-84
2023/01/03 10:55:55;;;;;;;12.20;7.25;;;7.60;99.00;;;;;;4937215;29;20056;-84
2023/01/03 10:58:24;;;;;;;10.98;6.20;;;7.60;99.00;;;;;;4936657;29;20486;-84
2023/01/03 11:01:21;;;;;;;12.10;6.35;;;7.60;98.90;;;;;;4936732;29;20151;-84
2023/01/03 11:04:14;;;;;;;11.00;6.35;;;7.60;98.90;;;;;;4936721;29;20091;-84
2023/01/03 11:06:57;;;;;;;9.70;5.65;;;7.70;99.00;;;;;;4921499;29;20061;-84
2023/01/03 11:09:34;;;;;;;11.10;6.60;;;7.70;99.00;;;;;;4936502;29;20052;-84
2023/01/03 11:12:10;;;;;;;10.93;6.13;;;7.70;99.00;;;;;;4936550;29;20048;-84
2023/01/03 11:14:37;;;;;;;10.52;6.03;;;7.70;99.00;;;;;;4936633;29;20498;-84
2023/01/03 11:17:05;;;;;;;9.35;5.43;;;7.70;99.00;;;;;;4889577;29;20054;-84
2023/01/03 11:19:33;;;;;;;10.82;4.90;;;7.80;99.00;;;;;;4935851;29;20048;-84
2023/01/03 11:22:10;;;;;;;10.77;5.95;;;7.90;99.00;;;;;;4936269;29;20529;-84
2023/01/03 11:24:59;;;;;;;9.35;4.82;;;7.90;98.90;;;;;;4936482;29;20518;-84
2023/01/03 11:27:51;;;;;;;11.77;6.25;;;7.90;98.90;;;;;;4925309;29;20557;-84
2023/01/03 11:30:48;;;;;;;9.48;5.47;;;7.90;98.90;;;;;;4936267;29;20140;-84
2023/01/03 11:33:30;;;;;;;9.00;5.28;;;7.90;98.90;;;;;;4920416;29;20056;-84
2023/01/03 11:36:05;;;;;;;9.35;5.72;;;7.90;99.00;;;;;;4921217;29;20347;-84
2023/01/03 11:38:48;;;;;;;9.23;4.82;;;7.90;99.00;;;;;;4920120;29;20052;-85
2023/01/03 11:42:01;;;;;;;8.68;4.70;;;7.90;99.00;;;;;;4936113;29;20134;-84
2023/01/03 11:44:33;;;;;;;7.90;4.20;;;8.00;99.00;;;;;;4886499;29;20045;-84
2023/01/03 11:47:32;;;;;;;6.45;3.15;;;8.00;99.00;;;;;;4900157;29;20058;-84
2023/01/03 11:50:23;;;;;;;8.18;4.45;;;8.00;98.90;;;;;;4915028;29;20052;-84
2023/01/03 11:53:28;;;;;;;7.60;3.65;;;8.00;98.90;;;;;;4920120;29;20083;-85
2023/01/03 11:56:08;;;;;;;7.63;4.30;;;8.00;98.90;;;;;;4919946;29;20047;-84
2023/01/03 11:59:06;;;;;;;7.88;4.10;;;8.00;99.00;;;;;;4920021;29;20106;-84
2023/01/03 12:02:00;;;;;;;9.02;3.55;;;8.00;98.90;;;;;;4943317;28;20509;-84
2023/01/03 12:04:29;;;;;;;8.85;4.20;;;8.00;99.00;;;;;;4928888;29;20522;-84
2023/01/03 12:07:21;;;;;;;10.02;4.22;;;8.00;99.00;;;;;;4935765;29;20047;-84
2023/01/03 12:10:25;;;;;;;8.45;3.88;;;8.00;99.00;;;;;;4925974;29;20043;-84
2023/01/03 12:13:25;;;;;;;10.10;6.10;;;8.00;99.00;;;;;;4919922;29;20082;-84
2023/01/03 12:16:15;;;;;;;11.50;4.97;;;8.10;99.00;;;;;;4931171;29;20074;-84
2023/01/03 12:19:00;;;;;;;10.88;6.03;;;8.10;99.00;;;;;;4935230;29;20044;-84
2023/01/03 12:21:39;;;;;;;8.00;4.72;;;8.10;99.00;;;;;;4923292;28;20043;-84
2023/01/03 12:24:30;;;;;;;9.32;4.68;;;8.10;99.00;;;;;;4897418;29;20096;-84
2023/01/03 12:27:31;;;;;;;8.55;4.63;;;8.20;99.00;;;;;;4921292;29;20052;-84
2023/01/03 12:30:23;;;;;;;9.60;5.18;;;8.20;99.00;;;;;;4914296;29;20048;-84
2023/01/03 12:33:00;;;;;;;9.10;3.97;;;8.20;98.90;;;;;;4918706;29;20474;-84
2023/01/03 12:35:40;;;;;;;7.15;4.07;;;8.20;98.90;;;;;;4913983;29;20462;-85
2023/01/03 12:38:10;;;;;;;8.50;4.35;;;8.20;98.90;;;;;;4894917;29;20044;-84
2023/01/03 12:40:43;;;;;;;7.82;4.25;;;8.20;98.90;;;;;;4920511;29;20050;-84
2023/01/03 12:43:18;;;;;;;9.05;4.55;;;8.30;98.90;;;;;;4915933;29;20036;-84
2023/01/03 12:45:55;;;;;;;8.98;4.65;;;8.30;98.80;;;;;;4915723;29;20044;-84
2023/01/03 12:48:32;;;;;;;8.32;4.10;;;8.30;98.80;;;;;;4945440;29;20142;-84
2023/01/03 12:50:59;;;;;;;9.25;4.00;;;8.40;98.80;;;;;;4914257;29;20071;-84
2023/01/03 12:53:51;;;;;;;7.97;3.35;;;8.30;98.70;;;;;;4906906;29;20119;-84
2023/01/03 12:56:52;;;;;;;8.20;3.80;;;8.40;98.80;;;;;;4904641;29;20132;-84
2023/01/03 12:59:53;;;;;;;7.50;4.10;;;8.40;98.70;;;;;;4923691;29;20119;-84
2023/01/03 13:02:42;;;;;;;9.52;4.60;;;8.40;98.70;;;;;;4896898;29;20041;-83
2023/01/03 13:05:36;;;;;;;7.80;4.30;;;8.40;98.60;;;;;;4899720;29;20052;-83
2023/01/03 13:08:27;;;;;;;8.38;4.47;;;8.50;98.60;;;;;;4918818;29;20048;-84
2023/01/03 13:10:59;;;;;;;8.68;4.75;;;8.50;98.60;;;;;;4911683;29;20048;-84
2023/01/03 13:13:27;;;;;;;8.65;4.35;;;8.50;98.60;;;;;;4931124;29;20044;-86
2023/01/03 13:15:55;;;;;;;8.85;4.38;;;8.50;98.50;;;;;;4899756;29;20499;-84
2023/01/03 13:18:30;;;;;;;8.43;4.80;;;8.60;98.50;;;;;;4899603;29;20491;-88
2023/01/03 13:20:58;;;;;;;8.35;4.63;;;8.60;98.40;;;;;;4915920;29;20052;-85
2023/01/03 13:23:28;;;;;;;8.63;4.10;;;8.70;98.40;;;;;;4929618;29;20055;-83
2023/01/03 13:26:04;;;;;;;7.85;3.10;;;8.70;98.40;;;;;;4915540;29;20106;-83
2023/01/03 13:28:37;;;;;;;6.82;3.97;;;8.80;98.40;;;;;;4934129;29;20040;-86
2023/01/03 13:31:13;;;;;;;10.05;4.15;;;8.80;98.30;;;;;;4934315;29;20489;-85
2023/01/03 13:33:50;;;;;;;6.93;4.03;;;8.80;98.20;;;;;;4921769;29;20058;-85
2023/01/03 13:36:18;;;;;;;7.57;4.25;;;8.70;98.20;;;;;;4953626;29;20512;-85
2023/01/03 13:38:46;;;;;;;7.95;4.53;;;8.70;98.20;;;;;;4927648;29;20102;-86
2023/01/03 13:41:37;;;;;;;7.25;4.65;;;8.70;98.20;;;;;;4934114;29;20048;-86
2023/01/03 13:44:13;;;;;;;6.82;4.05;;;8.70;98.10;;;;;;4942318;29;20582;-85
2023/01/03 13:46:41;;;;;;;5.80;3.42;;;8.70;98.20;;;;;;4937985;29;20503;-85
2023/01/03 13:49:18;;;;;;;6.43;3.33;;;8.60;98.10;;;;;;4924938;29;20047;-85
2023/01/03 13:51:56;;;;;;;6.88;3.50;;;8.60;97.80;;;;;;4937493;29;20077;-85
2023/01/03 13:54:34;;;;;;;6.85;2.47;;;8.60;97.80;;;;;;4922271;29;20414;-84
2023/01/03 13:57:04;;;;;;;5.95;2.75;;;8.70;97.90;;;;;;4937712;29;20550;-84
2023/01/03 13:59:41;;;;;;;6.43;3.20;;;8.70;97.80;;;;;;4928483;29;20054;-86
2023/01/03 14:02:08;;;;;;;7.15;3.42;;;8.70;97.50;;;;;;4922310;29;20055;-85
2023/01/03 14:04:57;;;;;;;7.53;2.58;;;8.70;97.60;;;;;;4921994;29;20099;-85
2023/01/03 14:07:43;;;;;;;6.05;2.08;;;8.70;97.60;;;;;;4927160;29;20047;-88
2023/01/03 14:10:22;;;;;;;3.25;1.92;;;8.70;97.60;;;;;;4934321;29;20054;-85
2023/01/03 14:13:11;;;;;;;4.28;2.38;;;8.80;97.60;;;;;;4923229;29;20094;-87
2023/01/03 14:15:41;;;;;;;4.32;2.10;;;8.80;97.50;;;;;;4922967;29;20071;-88
2023/01/03 14:18:25;;;;;;;3.97;2.20;;;8.80;97.40;;;;;;4906788;29;20432;-86
2023/01/03 14:20:55;;;;;;;6.80;2.22;;;8.90;97.20;;;;;;4917685;29;20498;-85
2023/01/03 14:23:25;;;;;;;5.20;1.77;;;8.90;97.20;;;;;;4937397;29;20086;-85
2023/01/03 14:26:17;;;;;;;3.80;2.55;;;8.90;97.50;;;;;;4926647;29;20047;-85
2023/01/03 14:28:50;;;;;;;6.53;3.28;;;8.80;97.20;;;;;;4936369;28;20059;-85
2023/01/03 14:31:20;;;;;;;5.60;2.80;;;8.80;97.00;;;;;;4936951;29;20126;-85
2023/01/03 14:34:00;;;;;;;5.00;2.55;;;8.80;97.10;;;;;;4915725;29;20099;-86
2023/01/03 14:36:28;;;;;;;5.60;2.20;;;8.70;97.10;;;;;;4952535;29;20494;-90
2023/01/03 14:38:59;;;;;;;3.95;2.17;;;8.70;97.20;;;;;;4939068;28;20040;-87